createdAt,value
2022-10-08T00:01:11.322Z,95.00
2022-10-08T00:03:41.261Z,94.64
2022-10-08T00:06:12.572Z,95.03
2022-10-08T00:08:42.149Z,95.52
2022-10-08T00:11:11.613Z,95.81
2022-10-08T00:13:42.231Z,96.78
2022-10-08T00:16:15.615Z,97.29
2022-10-08T00:18:44.456Z,97.15
2022-10-08T00:21:16.533Z,97.37
2022-10-08T00:23:44.757Z,98.01
2022-10-08T00:26:11.612Z,97.83
2022-10-08T00:28:42.281Z,97.89
2022-10-08T00:31:11.510Z,97.12
2022-10-08T00:33:39.017Z,97.37
2022-10-08T00:36:08.685Z,97.29
2022-10-08T00:38:35.730Z,97.67
2022-10-08T00:41:05.719Z,98.38
2022-10-08T00:43:44.074Z,98.99
2022-10-08T00:46:25.770Z,98.62
2022-10-08T00:49:19.891Z,98.22
2022-10-08T00:52:09.984Z,98.70
2022-10-08T00:54:52.023Z,99.23
2022-10-08T00:57:34.901Z,99.53
2022-10-08T01:00:27.999Z,100.00
2022-10-08T01:03:03.958Z,100.00
2022-10-08T01:05:39.593Z,100.00
2022-10-08T01:08:28.830Z,100.00
2022-10-08T01:11:11.712Z,100.00
2022-10-08T01:13:53.017Z,100.00
2022-10-08T01:16:32.807Z,100.00
2022-10-08T01:19:16.262Z,100.00
2022-10-08T01:22:16.609Z,100.00
2022-10-08T01:25:09.383Z,100.00
2022-10-08T01:28:02.921Z,100.00
2022-10-08T01:30:32.807Z,100.00
2022-10-08T01:33:12.541Z,100.00
2022-10-08T01:35:47.965Z,100.00
2022-10-08T01:38:17.968Z,100.00
2022-10-08T01:40:47.300Z,100.00
2022-10-08T01:43:18.650Z,100.00
2022-10-08T01:45:54.675Z,100.00
2022-10-08T01:48:28.094Z,100.00
2022-10-08T01:51:21.303Z,100.00
2022-10-08T01:53:51.865Z,100.00
2022-10-08T01:56:27.534Z,100.00
2022-10-08T01:59:33.182Z,100.00
2022-10-08T02:02:00.025Z,100.00
2022-10-08T02:04:35.806Z,100.00
2022-10-08T02:07:19.704Z,100.00
2022-10-08T02:10:17.179Z,100.00
2022-10-08T02:12:45.057Z,100.00
2022-10-08T02:15:16.741Z,100.00
2022-10-08T02:18:13.334Z,100.00
2022-10-08T02:20:50.616Z,100.00
2022-10-08T02:23:23.300Z,100.00
2022-10-08T02:25:55.141Z,100.00
2022-10-08T02:28:37.439Z,100.00
2022-10-08T02:31:10.407Z,100.00
2022-10-08T02:33:44.961Z,100.00
2022-10-08T02:36:14.867Z,100.00
2022-10-08T02:38:52.599Z,100.00
2022-10-08T02:41:23.600Z,100.00
2022-10-08T02:43:53.622Z,100.00
2022-10-08T02:46:28.675Z,100.00
2022-10-08T02:49:01.705Z,100.00
2022-10-08T02:51:31.346Z,100.00
2022-10-08T02:53:59.461Z,100.00
2022-10-08T02:56:36.500Z,100.00
2022-10-08T02:59:03.936Z,100.00
2022-10-08T03:01:36.764Z,100.00
2022-10-08T03:04:20.621Z,100.00
2022-10-08T03:06:49.107Z,100.00
2022-10-08T03:09:18.666Z,100.00
2022-10-08T03:11:45.880Z,100.00
2022-10-08T03:14:15.843Z,100.00
2022-10-08T03:16:45.472Z,100.00
2022-10-08T03:19:15.096Z,100.00
2022-10-08T03:21:43.960Z,100.00
2022-10-08T03:24:12.395Z,100.00
2022-10-08T03:26:40.244Z,100.00
2022-10-08T03:29:07.657Z,100.00
2022-10-08T03:31:34.418Z,100.00
2022-10-08T03:34:01.479Z,100.00
2022-10-08T03:36:29.804Z,100.00
2022-10-08T03:38:56.675Z,100.00
2022-10-08T03:41:23.748Z,100.00
2022-10-08T03:43:50.537Z,100.00
2022-10-08T03:46:17.655Z,100.00
2022-10-08T03:48:49.662Z,100.00
2022-10-08T03:51:17.520Z,100.00
2022-10-08T03:53:44.626Z,100.00
2022-10-08T03:56:17.118Z,100.00
2022-10-08T03:58:44.471Z,100.00
2022-10-08T04:01:15.283Z,100.00
2022-10-08T04:03:42.799Z,100.00
2022-10-08T04:06:09.683Z,100.00
2022-10-08T04:08:37.187Z,100.00
2022-10-08T04:11:10.147Z,100.00
2022-10-08T04:13:37.432Z,100.00
2022-10-08T04:16:10.683Z,100.00
2022-10-08T04:18:37.803Z,100.00
2022-10-08T04:21:07.735Z,100.00
2022-10-08T04:23:36.511Z,100.00
2022-10-08T04:26:04.043Z,100.00
2022-10-08T04:28:34.993Z,100.00
2022-10-08T04:31:11.526Z,100.00
2022-10-08T04:33:38.935Z,100.00
2022-10-08T04:36:11.004Z,100.00
2022-10-08T04:38:38.155Z,100.00
2022-10-08T04:41:09.797Z,100.00
2022-10-08T04:43:39.117Z,100.00
2022-10-08T04:46:08.661Z,100.00
2022-10-08T04:48:35.956Z,100.00
2022-10-08T04:51:09.397Z,100.00
2022-10-08T04:53:37.124Z,100.00
2022-10-08T04:56:17.131Z,100.00
2022-10-08T04:58:44.962Z,100.00
2022-10-08T05:01:14.672Z,100.00
2022-10-08T05:03:43.901Z,100.00
2022-10-08T05:06:11.662Z,100.00
2022-10-08T05:08:38.749Z,100.00
2022-10-08T05:11:07.730Z,100.00
2022-10-08T05:13:34.985Z,100.00
2022-10-08T05:16:12.302Z,100.00
2022-10-08T05:18:41.047Z,100.00
2022-10-08T05:21:14.637Z,100.00
2022-10-08T05:23:45.095Z,100.00
2022-10-08T05:26:17.892Z,100.00
2022-10-08T05:28:49.678Z,100.00
2022-10-08T05:31:17.457Z,100.00
2022-10-08T05:33:45.013Z,100.00
2022-10-08T05:36:18.132Z,100.00
2022-10-08T05:38:45.420Z,100.00
2022-10-08T05:41:36.193Z,100.00
2022-10-08T05:44:04.862Z,100.00
2022-10-08T05:46:34.148Z,100.00
2022-10-08T05:49:02.278Z,100.00
2022-10-08T05:51:30.664Z,100.00
2022-10-08T05:53:59.756Z,100.00
2022-10-08T05:56:28.166Z,100.00
2022-10-08T05:58:55.430Z,100.00
2022-10-08T06:01:28.829Z,100.00
2022-10-08T06:04:07.231Z,100.00
2022-10-08T06:06:35.560Z,98.79
2022-10-08T06:09:02.686Z,97.61
2022-10-08T06:11:32.131Z,96.47
2022-10-08T06:14:00.383Z,95.79
2022-10-08T06:16:30.663Z,95.36
2022-10-08T06:18:58.502Z,94.73
2022-10-08T06:21:26.820Z,94.51
2022-10-08T06:23:56.064Z,96.48
2022-10-08T06:26:26.862Z,91.74
2022-10-08T06:28:55.828Z,91.66
2022-10-08T06:31:23.122Z,90.87
2022-10-08T06:33:50.197Z,90.20
2022-10-08T06:36:19.731Z,89.08
2022-10-08T06:38:57.842Z,88.56
2022-10-08T06:41:26.248Z,87.78
2022-10-08T06:43:53.725Z,88.36
2022-10-08T06:46:20.674Z,87.20
2022-10-08T06:48:47.878Z,86.18
2022-10-08T06:51:16.887Z,86.02
2022-10-08T06:53:44.696Z,85.69
2022-10-08T06:56:18.096Z,84.70
2022-10-08T06:58:47.626Z,83.26
2022-10-08T07:01:31.831Z,84.22
2022-10-08T07:04:00.938Z,82.88
2022-10-08T07:06:28.437Z,81.40
2022-10-08T07:08:57.050Z,81.76
2022-10-08T07:11:24.854Z,82.25
2022-10-08T07:13:52.050Z,81.61
2022-10-08T07:16:21.615Z,80.48
2022-10-08T07:18:51.131Z,80.39
2022-10-08T07:21:18.741Z,80.36
2022-10-08T07:23:45.797Z,79.55
2022-10-08T07:26:17.663Z,78.20
2022-10-08T07:28:51.049Z,77.39
2022-10-08T07:31:20.885Z,76.78
2022-10-08T07:33:47.980Z,77.23
2022-10-08T07:36:20.188Z,76.72
2022-10-08T07:38:48.427Z,75.27
2022-10-08T07:41:15.881Z,75.11
2022-10-08T07:43:43.486Z,74.03
2022-10-08T07:46:12.178Z,74.48
2022-10-08T07:48:39.620Z,74.55
2022-10-08T07:51:17.080Z,75.26
2022-10-08T07:53:44.662Z,73.82
2022-10-08T07:56:13.724Z,72.29
2022-10-08T07:58:41.480Z,72.06
2022-10-08T08:01:14.956Z,72.01
2022-10-08T08:03:42.615Z,72.42
2022-10-08T08:06:14.230Z,73.06
2022-10-08T08:08:43.798Z,71.44
2022-10-08T08:11:13.244Z,69.60
2022-10-08T08:13:41.588Z,68.33
2022-10-08T08:16:16.761Z,67.67
2022-10-08T08:18:46.753Z,67.11
2022-10-08T08:21:19.069Z,65.20
2022-10-08T08:23:48.964Z,64.34
2022-10-08T08:26:24.324Z,62.72
2022-10-08T08:29:00.469Z,61.81
2022-10-08T08:31:30.555Z,58.90
2022-10-08T08:34:00.344Z,57.80
2022-10-08T08:36:33.233Z,56.27
2022-10-08T08:39:00.691Z,57.17
2022-10-08T08:41:45.829Z,55.00
2022-10-08T08:44:24.761Z,54.04
2022-10-08T08:46:56.985Z,54.59
2022-10-08T08:49:31.768Z,52.83
2022-10-08T08:52:01.871Z,54.24
2022-10-08T08:54:29.043Z,54.03
2022-10-08T08:56:57.117Z,53.16
2022-10-08T08:59:28.548Z,51.94
2022-10-08T09:02:20.002Z,51.40
2022-10-08T09:05:00.771Z,50.07
2022-10-08T09:07:36.556Z,49.33
2022-10-08T09:10:09.496Z,48.85
2022-10-08T09:12:43.949Z,48.96
2022-10-08T09:15:20.411Z,48.62
2022-10-08T09:17:52.336Z,47.74
2022-10-08T09:20:22.921Z,46.95
2022-10-08T09:22:51.868Z,47.18
2022-10-08T09:25:21.508Z,45.17
2022-10-08T09:27:55.247Z,45.63
2022-10-08T09:30:25.129Z,46.24
2022-10-08T09:32:54.658Z,44.27
2022-10-08T09:35:22.481Z,44.62
2022-10-08T09:37:51.364Z,44.58
2022-10-08T09:40:24.902Z,43.53
2022-10-08T09:43:13.049Z,42.33
2022-10-08T09:45:43.054Z,41.53
2022-10-08T09:48:27.983Z,41.50
2022-10-08T09:51:16.511Z,41.42
2022-10-08T09:53:47.669Z,39.51
2022-10-08T09:56:15.699Z,40.05
2022-10-08T09:58:53.011Z,39.59
2022-10-08T10:01:21.604Z,39.59
2022-10-08T10:03:56.071Z,40.49
2022-10-08T10:06:33.514Z,39.15
2022-10-08T10:09:23.546Z,39.40
2022-10-08T10:11:56.696Z,39.06
2022-10-08T10:14:29.504Z,38.07
2022-10-08T10:17:03.131Z,37.74
2022-10-08T10:19:38.789Z,37.50
2022-10-08T10:22:14.433Z,38.03
2022-10-08T10:25:05.940Z,37.52
2022-10-08T10:27:38.669Z,37.08
2022-10-08T10:30:10.440Z,37.55
2022-10-08T10:32:41.496Z,37.04
2022-10-08T10:35:25.799Z,37.76
2022-10-08T10:38:03.316Z,36.25
2022-10-08T10:40:46.752Z,35.94
2022-10-08T10:43:29.384Z,36.49
2022-10-08T10:46:14.060Z,36.88
2022-10-08T10:48:44.824Z,35.33
2022-10-08T10:51:45.179Z,35.50
2022-10-08T10:54:48.858Z,35.51
2022-10-08T10:57:36.430Z,35.91
2022-10-08T11:00:19.997Z,35.55
2022-10-08T11:03:04.572Z,34.67
2022-10-08T11:05:35.379Z,34.91
2022-10-08T11:08:04.977Z,34.54
2022-10-08T11:11:01.923Z,34.77
2022-10-08T11:14:06.332Z,35.05
2022-10-08T11:16:40.263Z,36.57
2022-10-08T11:19:22.579Z,36.89
2022-10-08T11:22:03.696Z,36.44
2022-10-08T11:25:08.066Z,35.89
2022-10-08T11:27:52.943Z,35.71
2022-10-08T11:30:32.788Z,35.46
2022-10-08T11:32:59.891Z,34.80
2022-10-08T11:35:47.814Z,35.24
2022-10-08T11:38:25.738Z,34.09
2022-10-08T11:41:01.840Z,34.69
2022-10-08T11:43:50.192Z,33.67
2022-10-08T11:46:29.965Z,34.82
2022-10-08T11:49:17.187Z,34.82
2022-10-08T11:51:45.856Z,34.39
2022-10-08T11:54:28.647Z,33.99
2022-10-08T11:57:25.708Z,32.96
2022-10-08T12:00:07.772Z,32.99
2022-10-08T12:02:42.031Z,31.69
2022-10-08T12:05:24.000Z,32.38
2022-10-08T12:08:03.124Z,31.93
2022-10-08T12:10:36.808Z,31.16
2022-10-08T12:13:11.964Z,31.44
2022-10-08T12:15:40.966Z,31.71
2022-10-08T12:18:10.817Z,32.80
2022-10-08T12:20:39.661Z,32.03
2022-10-08T12:23:09.039Z,33.24
2022-10-08T12:25:46.410Z,33.73
2022-10-08T12:28:19.113Z,32.50
2022-10-08T12:30:49.814Z,31.80
2022-10-08T12:33:17.438Z,31.80
2022-10-08T12:35:52.814Z,32.74
2022-10-08T12:38:51.407Z,31.75
2022-10-08T12:41:29.304Z,30.58
2022-10-08T12:44:28.440Z,30.60
2022-10-08T12:46:58.306Z,30.65
2022-10-08T12:49:46.053Z,30.39
2022-10-08T12:52:18.259Z,30.22
2022-10-08T12:54:55.430Z,29.64
2022-10-08T12:57:35.153Z,29.26
2022-10-08T13:00:25.462Z,29.51
2022-10-08T13:03:07.711Z,29.07
2022-10-08T13:05:39.340Z,28.40
2022-10-08T13:08:39.737Z,28.24
2022-10-08T13:11:12.587Z,28.12
2022-10-08T13:13:39.371Z,27.94
2022-10-08T13:16:45.274Z,29.17
2022-10-08T13:19:28.130Z,28.49
2022-10-08T13:22:00.745Z,27.27
2022-10-08T13:24:32.859Z,27.21
2022-10-08T13:26:59.868Z,27.85
2022-10-08T13:29:36.386Z,28.25
2022-10-08T13:32:12.511Z,28.37
2022-10-08T13:34:39.425Z,26.52
2022-10-08T13:37:12.800Z,26.27
2022-10-08T13:39:43.882Z,27.85
2022-10-08T13:42:16.321Z,24.78
2022-10-08T13:44:44.018Z,25.45
2022-10-08T13:47:16.235Z,24.82
2022-10-08T13:49:43.822Z,24.77
2022-10-08T13:52:18.670Z,25.51
2022-10-08T13:54:46.741Z,25.62
2022-10-08T13:57:14.179Z,25.34
2022-10-08T13:59:40.942Z,24.92
2022-10-08T14:02:10.445Z,25.84
2022-10-08T14:04:37.498Z,25.54
2022-10-08T14:07:04.997Z,27.02
2022-10-08T14:09:31.896Z,25.33
2022-10-08T14:12:02.142Z,24.99
2022-10-08T14:14:29.074Z,24.78
2022-10-08T14:16:55.929Z,24.88
2022-10-08T14:19:22.867Z,25.11
2022-10-08T14:21:52.892Z,24.55
2022-10-08T14:24:20.013Z,24.38
2022-10-08T14:26:46.819Z,25.12
2022-10-08T14:29:13.608Z,25.01
2022-10-08T14:31:40.479Z,24.88
2022-10-08T14:34:07.612Z,25.27
2022-10-08T14:36:41.091Z,25.02
2022-10-08T14:39:08.224Z,25.31
2022-10-08T14:41:35.029Z,25.01
2022-10-08T14:44:01.936Z,24.77
2022-10-08T14:46:28.770Z,24.86
2022-10-08T14:48:55.800Z,24.76
2022-10-08T14:51:22.800Z,25.83
2022-10-08T14:53:50.762Z,25.17
2022-10-08T14:56:17.561Z,24.26
2022-10-08T14:58:44.492Z,25.32
2022-10-08T15:01:11.381Z,24.92
2022-10-08T15:03:38.291Z,25.11
2022-10-08T15:06:05.368Z,25.43
2022-10-08T15:08:32.278Z,26.88
2022-10-08T15:11:01.913Z,27.74
2022-10-08T15:13:29.247Z,29.28
2022-10-08T15:15:56.097Z,30.56
2022-10-08T15:18:23.173Z,31.50
2022-10-08T15:20:57.493Z,32.77
2022-10-08T15:23:25.447Z,33.44
2022-10-08T15:26:06.813Z,34.60
2022-10-08T15:28:38.083Z,35.53
2022-10-08T15:31:11.989Z,36.10
2022-10-08T15:33:49.794Z,37.21
2022-10-08T15:36:25.314Z,37.85
2022-10-08T15:38:57.011Z,38.60
2022-10-08T15:41:24.690Z,39.72
2022-10-08T15:43:51.741Z,40.75
2022-10-08T15:46:20.772Z,41.22
2022-10-08T15:48:53.046Z,41.79
2022-10-08T15:51:21.492Z,42.97
2022-10-08T15:53:48.708Z,43.94
2022-10-08T15:56:15.879Z,44.60
2022-10-08T15:58:51.008Z,44.41
2022-10-08T16:01:23.319Z,45.36
2022-10-08T16:03:52.315Z,46.20
2022-10-08T16:06:21.000Z,46.95
2022-10-08T16:08:48.164Z,47.59
2022-10-08T16:11:19.684Z,49.30
2022-10-08T16:13:50.186Z,50.61
2022-10-08T16:16:18.100Z,49.37
2022-10-08T16:18:51.163Z,48.70
2022-10-08T16:21:18.028Z,49.18
2022-10-08T16:23:44.951Z,50.41
2022-10-08T16:26:13.702Z,50.84
2022-10-08T16:28:41.155Z,49.94
2022-10-08T16:31:09.012Z,52.42
2022-10-08T16:33:35.914Z,49.80
2022-10-08T16:36:05.233Z,53.51
2022-10-08T16:38:38.770Z,51.13
2022-10-08T16:41:23.174Z,51.10
2022-10-08T16:43:53.495Z,51.09
2022-10-08T16:46:30.006Z,53.09
2022-10-08T16:48:58.160Z,54.95
2022-10-08T16:51:27.646Z,54.87
2022-10-08T16:53:58.452Z,55.61
2022-10-08T16:56:28.459Z,56.24
2022-10-08T16:58:58.466Z,57.86
2022-10-08T17:01:26.126Z,58.45
2022-10-08T17:03:53.869Z,59.45
2022-10-08T17:06:23.084Z,60.12
2022-10-08T17:08:50.385Z,60.74
2022-10-08T17:11:18.000Z,61.59
2022-10-08T17:13:50.759Z,62.51
2022-10-08T17:16:19.630Z,62.94
2022-10-08T17:18:47.448Z,63.07
2022-10-08T17:21:14.722Z,63.65
2022-10-08T17:23:41.751Z,64.09
2022-10-08T17:26:28.541Z,64.56
2022-10-08T17:28:55.865Z,65.29
2022-10-08T17:31:25.750Z,65.26
2022-10-08T17:33:53.164Z,65.28
2022-10-08T17:36:26.705Z,66.13
2022-10-08T17:38:56.460Z,66.24
2022-10-08T17:41:31.679Z,66.31
2022-10-08T17:44:01.538Z,65.94
2022-10-08T17:46:33.424Z,66.35
2022-10-08T17:49:00.235Z,66.48
2022-10-08T17:51:29.930Z,66.29
2022-10-08T17:53:56.683Z,66.94
2022-10-08T17:56:24.576Z,66.39
2022-10-08T17:58:52.331Z,66.02
2022-10-08T18:01:21.672Z,66.30
2022-10-08T18:04:09.574Z,66.66
2022-10-08T18:06:38.893Z,66.59
2022-10-08T18:09:12.481Z,66.89
2022-10-08T18:11:43.537Z,66.79
2022-10-08T18:14:10.555Z,67.47
2022-10-08T18:16:37.746Z,67.90
2022-10-08T18:19:08.775Z,67.76
2022-10-08T18:21:35.905Z,68.21
2022-10-08T18:24:02.945Z,68.05
2022-10-08T18:26:34.632Z,68.55
2022-10-08T18:29:09.265Z,69.02
2022-10-08T18:31:38.121Z,69.17
2022-10-08T18:34:07.722Z,69.59
2022-10-08T18:36:36.583Z,69.82
2022-10-08T18:39:13.508Z,69.92
2022-10-08T18:41:45.986Z,69.99
2022-10-08T18:44:21.962Z,70.29
2022-10-08T18:46:49.199Z,71.64
2022-10-08T18:49:18.523Z,70.88
2022-10-08T18:51:45.544Z,70.89
2022-10-08T18:54:13.018Z,70.87
2022-10-08T18:56:41.275Z,71.14
2022-10-08T18:59:14.869Z,71.73
2022-10-08T19:01:45.274Z,71.82
2022-10-08T19:04:15.755Z,72.93
2022-10-08T19:06:44.923Z,72.87
2022-10-08T19:09:11.867Z,73.96
2022-10-08T19:11:45.361Z,75.28
2022-10-08T19:14:15.440Z,75.61
2022-10-08T19:16:43.321Z,76.14
2022-10-08T19:19:15.889Z,76.48
2022-10-08T19:21:43.219Z,77.05
2022-10-08T19:24:14.208Z,78.25
2022-10-08T19:26:41.172Z,79.33
2022-10-08T19:29:13.629Z,79.93
2022-10-08T19:31:40.492Z,80.79
2022-10-08T19:34:08.325Z,81.43
2022-10-08T19:36:38.141Z,81.74
2022-10-08T19:39:11.942Z,81.90
2022-10-08T19:41:40.648Z,82.11
2022-10-08T19:44:07.986Z,83.06
2022-10-08T19:46:35.450Z,82.84
2022-10-08T19:49:04.261Z,83.31
2022-10-08T19:51:32.284Z,83.41
2022-10-08T19:54:00.740Z,84.02
2022-10-08T19:56:29.020Z,83.58
2022-10-08T19:58:57.427Z,83.85
2022-10-08T20:01:30.002Z,84.22
2022-10-08T20:03:58.702Z,85.06
2022-10-08T20:06:28.816Z,85.46
2022-10-08T20:08:58.081Z,85.90
2022-10-08T20:11:25.173Z,86.40
2022-10-08T20:13:53.948Z,86.54
2022-10-08T20:16:30.132Z,86.76
2022-10-08T20:19:06.422Z,87.34
2022-10-08T20:21:37.371Z,87.91
2022-10-08T20:24:06.749Z,87.92
2022-10-08T20:26:34.869Z,88.21
2022-10-08T20:29:20.970Z,87.96
2022-10-08T20:31:55.197Z,87.96
2022-10-08T20:34:31.432Z,88.32
2022-10-08T20:37:01.428Z,88.69
2022-10-08T20:39:28.960Z,89.27
2022-10-08T20:41:56.383Z,90.18
2022-10-08T20:44:23.400Z,90.18
2022-10-08T20:46:51.005Z,90.64
2022-10-08T20:49:18.178Z,91.32
2022-10-08T20:51:46.501Z,91.14
2022-10-08T20:54:16.279Z,91.04
2022-10-08T20:56:44.206Z,90.86
2022-10-08T20:59:16.694Z,89.90
2022-10-08T21:01:43.629Z,89.99
2022-10-08T21:04:10.484Z,89.89
2022-10-08T21:06:45.933Z,89.92
2022-10-08T21:09:13.860Z,90.48
2022-10-08T21:11:41.607Z,91.01
2022-10-08T21:14:10.130Z,90.98
2022-10-08T21:16:39.596Z,91.75
2022-10-08T21:19:10.194Z,92.94
2022-10-08T21:21:36.986Z,93.08
2022-10-08T21:24:04.274Z,93.84
2022-10-08T21:26:33.813Z,94.37
2022-10-08T21:29:06.848Z,94.70
2022-10-08T21:31:36.447Z,95.33
2022-10-08T21:34:03.904Z,94.71
2022-10-08T21:36:36.113Z,94.24
2022-10-08T21:39:05.768Z,94.47
2022-10-08T21:41:35.333Z,94.10
2022-10-08T21:44:04.472Z,94.28
2022-10-08T21:46:33.722Z,95.26
2022-10-08T21:49:20.822Z,95.15
2022-10-08T21:51:48.215Z,95.75
2022-10-08T21:54:16.483Z,96.34
2022-10-08T21:56:43.688Z,96.69
2022-10-08T21:59:13.110Z,97.06
2022-10-08T22:01:41.467Z,96.50
2022-10-08T22:04:10.798Z,96.77
2022-10-08T22:06:59.960Z,97.25
2022-10-08T22:09:29.269Z,97.71
2022-10-08T22:11:56.881Z,98.56
2022-10-08T22:14:24.525Z,98.73
2022-10-08T22:16:51.755Z,99.75
2022-10-08T22:19:18.953Z,100.00
2022-10-08T22:21:46.616Z,100.00
2022-10-08T22:24:13.635Z,100.00
2022-10-08T22:26:48.990Z,100.00
2022-10-08T22:29:16.326Z,100.00
2022-10-08T22:31:43.221Z,99.88
2022-10-08T22:34:10.344Z,99.46
2022-10-08T22:36:40.539Z,100.00
2022-10-08T22:39:08.340Z,99.00
2022-10-08T22:41:35.447Z,100.00
2022-10-08T22:44:03.815Z,100.00
2022-10-08T22:46:35.141Z,100.00
2022-10-08T22:49:05.056Z,100.00
2022-10-08T22:51:32.340Z,100.00
2022-10-08T22:53:59.435Z,100.00
2022-10-08T22:56:29.348Z,100.00
2022-10-08T22:58:57.559Z,100.00
2022-10-08T23:01:26.004Z,100.00
2022-10-08T23:03:53.954Z,100.00
2022-10-08T23:06:34.665Z,100.00
2022-10-08T23:09:11.579Z,100.00
2022-10-08T23:11:38.899Z,100.00
2022-10-08T23:14:06.153Z,100.00
2022-10-08T23:16:34.116Z,100.00
2022-10-08T23:19:06.402Z,100.00
2022-10-08T23:21:33.550Z,100.00
2022-10-08T23:24:00.523Z,100.00
2022-10-08T23:26:28.448Z,100.00
2022-10-08T23:29:00.226Z,100.00
2022-10-08T23:31:33.126Z,100.00
2022-10-08T23:34:00.945Z,100.00
2022-10-08T23:36:47.084Z,100.00
2022-10-08T23:39:16.677Z,100.00
2022-10-08T23:41:43.757Z,100.00
2022-10-08T23:44:11.903Z,100.00
2022-10-08T23:46:39.025Z,100.00
2022-10-08T23:49:05.850Z,100.00
2022-10-08T23:51:32.800Z,100.00
2022-10-08T23:54:01.332Z,100.00
2022-10-08T23:56:28.435Z,100.00
2022-10-08T23:58:55.341Z,100.00
